Time;durP1;ratioP1;P1;durP2;ratioP2;P2;SDS_P1;SDS_P2;PMS_P1;PMS_P2;Temp;Humidity;BMP_temperature;BMP_pressure;BME280_temperature;BME280_humidity;BME280_pressure;Samples;Min_cycle;Max_cycle;Signal;HPM_P1;HPM_P2
2023/07/04 00:00:41;;;;;;;;;;;26.60;65.30;;;;;;5062160;28;19935;-37
2023/07/04 00:03:06;;;;;;;;;;;26.60;65.70;;;;;;5058171;28;19932;-36
2023/07/04 00:05:32;;;;;;;;;;;26.60;66.00;;;;;;5057265;28;19913;-36
2023/07/04 00:07:58;;;;;;;;;;;26.50;66.60;;;;;;5062674;28;19972;-37
2023/07/04 00:10:24;;;;;;;;;;;26.50;65.40;;;;;;5062910;28;19917;-36
2023/07/04 00:12:50;;;;;;;;;;;26.50;65.70;;;;;;5062886;28;20042;-36
2023/07/04 00:15:16;;;;;;;;;;;26.50;66.00;;;;;;5062535;28;19923;-36
2023/07/04 00:17:42;;;;;;;;;;;26.40;66.60;;;;;;5059003;28;19980;-36
2023/07/04 00:20:09;;;;;;;;;;;26.40;66.10;;;;;;5062948;28;19966;-36
2023/07/04 00:22:36;;;;;;;;;;;26.40;66.40;;;;;;5062910;28;19916;-36
2023/07/04 00:25:02;;;;;;;;;;;26.40;66.50;;;;;;5062305;28;19920;-35
2023/07/04 00:27:28;;;;;;;;;;;26.40;67.20;;;;;;5065032;28;20201;-36
2023/07/04 00:29:54;;;;;;;;;;;26.30;66.90;;;;;;5067923;28;20003;-36
2023/07/04 00:32:20;;;;;;;;;;;26.30;64.70;;;;;;5062104;28;19955;-36
2023/07/04 00:34:46;;;;;;;;;;;26.30;66.30;;;;;;5062516;28;19920;-36
2023/07/04 00:37:12;;;;;;;;;;;26.20;65.80;;;;;;5063505;28;19965;-36
2023/07/04 00:39:38;;;;;;;;;;;26.20;65.70;;;;;;5069203;28;19923;-36
2023/07/04 00:42:08;;;;;;;;;;;26.20;65.80;;;;;;5054815;28;19912;-36
2023/07/04 00:44:37;;;;;;;;;;;26.20;64.80;;;;;;5062136;28;19932;-36
2023/07/04 00:47:10;;;;;;;;;;;26.10;64.00;;;;;;5061780;28;19963;-36
2023/07/04 00:49:43;;;;;;;;;;;26.10;64.60;;;;;;5092813;28;19916;-35
2023/07/04 00:52:10;;;;;;;;;;;26.10;64.50;;;;;;5062071;28;19917;-36
2023/07/04 00:54:47;;;;;;;;;;;26.10;63.90;;;;;;5062203;28;19915;-36
2023/07/04 00:57:14;;;;;;;;;;;26.00;63.80;;;;;;5061063;28;19912;-35
2023/07/04 00:59:43;;;;;;;;;;;26.00;64.70;;;;;;5061892;28;19909;-36
2023/07/04 01:02:12;;;;;;;;;;;26.00;63.00;;;;;;5055216;28;19913;-36
2023/07/04 01:04:38;;;;;;;;;;;25.90;65.10;;;;;;5067423;28;19916;-36
2023/07/04 01:07:24;;;;;;;;;;;25.90;65.20;;;;;;5062721;28;19976;-36
2023/07/04 01:09:51;;;;;;;;;;;25.90;65.30;;;;;;5055993;28;19920;-36
2023/07/04 01:12:18;;;;;;;;;;;25.80;65.00;;;;;;5061824;28;19920;-36
2023/07/04 01:14:44;;;;;;;;;;;25.80;64.90;;;;;;5061701;28;20098;-41
2023/07/04 01:17:10;;;;;;;;;;;25.80;64.00;;;;;;5062029;28;19963;-36
2023/07/04 01:19:36;;;;;;;;;;;25.70;64.70;;;;;;5065910;28;20292;-36
2023/07/04 01:22:09;;;;;;;;;;;25.70;64.30;;;;;;5064293;28;19947;-36
2023/07/04 01:24:48;;;;;;;;;;;25.70;64.20;;;;;;5097698;28;19921;-36
2023/07/04 01:27:14;;;;;;;;;;;25.60;64.00;;;;;;5066699;28;19920;-36
2023/07/04 01:29:41;;;;;;;;;;;25.60;63.20;;;;;;5097368;28;19909;-36
2023/07/04 01:32:08;;;;;;;;;;;25.60;63.50;;;;;;5096252;28;19927;-36
2023/07/04 01:34:34;;;;;;;;;;;25.50;63.00;;;;;;5065848;28;19919;-36
2023/07/04 01:37:02;;;;;;;;;;;25.50;63.20;;;;;;5065257;28;19948;-36
2023/07/04 01:39:27;;;;;;;;;;;25.50;63.30;;;;;;5065718;28;19909;-36
2023/07/04 01:41:54;;;;;;;;;;;25.40;62.70;;;;;;5067764;28;19920;-36
2023/07/04 01:44:24;;;;;;;;;;;25.40;63.50;;;;;;5070877;28;19908;-36
2023/07/04 01:46:50;;;;;;;;;;;25.40;63.30;;;;;;5065384;28;19912;-35
2023/07/04 01:49:17;;;;;;;;;;;25.30;63.40;;;;;;5065107;28;19943;-36
2023/07/04 01:51:43;;;;;;;;;;;25.30;63.50;;;;;;5064651;28;19964;-36
2023/07/04 01:54:10;;;;;;;;;;;25.30;63.40;;;;;;5065513;28;20275;-36
2023/07/04 01:56:36;;;;;;;;;;;25.20;63.40;;;;;;5067885;28;19936;-35
2023/07/04 01:59:02;;;;;;;;;;;25.20;63.20;;;;;;5065777;28;20385;-35
2023/07/04 02:01:28;;;;;;;;;;;25.20;63.10;;;;;;5064896;28;19920;-36
2023/07/04 02:03:54;;;;;;;;;;;25.10;63.20;;;;;;5064365;28;19913;-35
2023/07/04 02:06:20;;;;;;;;;;;25.10;62.90;;;;;;5064833;28;19908;-36
2023/07/04 02:08:45;;;;;;;;;;;25.10;62.60;;;;;;5064861;28;19909;-35
2023/07/04 02:11:12;;;;;;;;;;;25.00;62.50;;;;;;5063994;28;19933;-35
2023/07/04 02:13:38;;;;;;;;;;;25.00;62.50;;;;;;5064410;28;19909;-35
2023/07/04 02:16:04;;;;;;;;;;;25.00;62.50;;;;;;5065034;28;19908;-36
2023/07/04 02:18:30;;;;;;;;;;;24.90;62.20;;;;;;5064640;28;19909;-37
2023/07/04 02:20:56;;;;;;;;;;;24.90;62.40;;;;;;5056922;28;20022;-36
2023/07/04 02:23:22;;;;;;;;;;;24.90;62.30;;;;;;5064215;28;19919;-36
2023/07/04 02:25:48;;;;;;;;;;;24.80;62.20;;;;;;5067454;28;19912;-36
2023/07/04 02:28:14;;;;;;;;;;;24.80;62.40;;;;;;5064256;28;19919;-35
2023/07/04 02:30:40;;;;;;;;;;;24.80;62.50;;;;;;5055689;28;19917;-36
2023/07/04 02:33:06;;;;;;;;;;;24.80;62.40;;;;;;5063653;28;20381;-36
2023/07/04 02:35:32;;;;;;;;;;;24.70;62.30;;;;;;5071530;28;19985;-36
2023/07/04 02:37:58;;;;;;;;;;;24.70;62.40;;;;;;5064320;28;19954;-36
2023/07/04 02:40:23;;;;;;;;;;;24.60;62.40;;;;;;5064147;28;19908;-36
2023/07/04 02:42:49;;;;;;;;;;;24.60;62.50;;;;;;5061984;28;20560;-36
2023/07/04 02:45:15;;;;;;;;;;;24.60;62.50;;;;;;5063869;28;19912;-35
2023/07/04 02:47:41;;;;;;;;;;;24.60;62.60;;;;;;5063729;28;19918;-35
2023/07/04 02:50:07;;;;;;;;;;;24.60;62.40;;;;;;5066859;28;19935;-35
2023/07/04 02:52:33;;;;;;;;;;;24.50;62.20;;;;;;5063909;28;19988;-36
2023/07/04 02:54:59;;;;;;;;;;;24.50;62.20;;;;;;5063664;28;19913;-35
2023/07/04 02:57:25;;;;;;;;;;;24.40;62.20;;;;;;5067271;28;19990;-35
2023/07/04 02:59:51;;;;;;;;;;;24.40;62.20;;;;;;5063119;28;19948;-35
2023/07/04 03:02:18;;;;;;;;;;;24.40;62.10;;;;;;5063336;28;19912;-35
2023/07/04 03:04:45;;;;;;;;;;;24.40;62.20;;;;;;5063361;28;19909;-35
2023/07/04 03:07:11;;;;;;;;;;;24.30;62.00;;;;;;5059146;28;19939;-36
2023/07/04 03:09:37;;;;;;;;;;;24.30;61.90;;;;;;5068067;28;19909;-36
2023/07/04 03:12:03;;;;;;;;;;;24.20;62.00;;;;;;5063325;28;19928;-35
2023/07/04 03:14:29;;;;;;;;;;;24.20;62.20;;;;;;5063660;28;19916;-35
2023/07/04 03:16:55;;;;;;;;;;;24.20;62.10;;;;;;5062893;28;19916;-35
2023/07/04 03:19:21;;;;;;;;;;;24.10;62.20;;;;;;5063121;28;19909;-36
2023/07/04 03:21:47;;;;;;;;;;;24.10;62.20;;;;;;5061962;28;19912;-35
2023/07/04 03:24:13;;;;;;;;;;;24.10;62.20;;;;;;5062971;28;20435;-35
2023/07/04 03:26:40;;;;;;;;;;;24.10;62.30;;;;;;5065890;28;19917;-35
2023/07/04 03:29:07;;;;;;;;;;;24.00;62.30;;;;;;5063432;28;20607;-35
2023/07/04 03:31:33;;;;;;;;;;;24.00;62.20;;;;;;5063748;28;19920;-36
2023/07/04 03:33:59;;;;;;;;;;;24.00;62.10;;;;;;5062524;28;19913;-35
2023/07/04 03:36:24;;;;;;;;;;;23.90;62.10;;;;;;5064769;28;19912;-35
2023/07/04 03:38:50;;;;;;;;;;;23.90;62.00;;;;;;5062443;28;19913;-35
2023/07/04 03:41:16;;;;;;;;;;;23.90;62.10;;;;;;5062137;28;19994;-35
2023/07/04 03:43:42;;;;;;;;;;;23.90;62.00;;;;;;5062772;28;19916;-35
2023/07/04 03:46:08;;;;;;;;;;;23.80;61.90;;;;;;5063282;28;19939;-35
2023/07/04 03:48:34;;;;;;;;;;;23.80;61.80;;;;;;5062464;28;19916;-35
2023/07/04 03:51:01;;;;;;;;;;;23.80;61.90;;;;;;5062422;28;19952;-35
2023/07/04 03:53:27;;;;;;;;;;;23.70;61.90;;;;;;5062423;28;19959;-35
2023/07/04 03:55:53;;;;;;;;;;;23.70;61.90;;;;;;5065338;28;19916;-35
2023/07/04 03:58:19;;;;;;;;;;;23.70;62.10;;;;;;5062778;28;19916;-35
2023/07/04 04:00:45;;;;;;;;;;;23.70;62.10;;;;;;5063435;28;19948;-35
2023/07/04 04:03:12;;;;;;;;;;;23.60;62.00;;;;;;5062657;28;20354;-35
2023/07/04 04:05:41;;;;;;;;;;;23.60;62.10;;;;;;5062697;28;19920;-36
2023/07/04 04:08:06;;;;;;;;;;;23.60;62.10;;;;;;5062381;28;19976;-35
2023/07/04 04:10:33;;;;;;;;;;;23.50;61.90;;;;;;5062626;28;19944;-35
2023/07/04 04:12:58;;;;;;;;;;;23.50;61.90;;;;;;5061913;28;19926;-35
2023/07/04 04:15:24;;;;;;;;;;;23.50;62.10;;;;;;5062686;28;19999;-35
2023/07/04 04:17:50;;;;;;;;;;;23.50;61.80;;;;;;5061350;28;19944;-35
2023/07/04 04:20:16;;;;;;;;;;;23.40;62.00;;;;;;5062810;28;19908;-35
2023/07/04 04:22:44;;;;;;;;;;;23.40;61.90;;;;;;5061777;28;19913;-35
2023/07/04 04:25:13;;;;;;;;;;;23.40;62.00;;;;;;5054866;28;19919;-35
2023/07/04 04:27:39;;;;;;;;;;;23.40;62.30;;;;;;5058983;28;19913;-35
2023/07/04 04:30:09;;;;;;;;;;;23.30;62.40;;;;;;5062361;28;19923;-35
2023/07/04 04:32:35;;;;;;;;;;;23.30;62.60;;;;;;5062459;28;19955;-35
2023/07/04 04:35:02;;;;;;;;;;;23.30;62.90;;;;;;5064168;28;19916;-35
2023/07/04 04:37:28;;;;;;;;;;;23.30;63.10;;;;;;5062127;28;20032;-35
2023/07/04 04:39:54;;;;;;;;;;;23.30;63.40;;;;;;5062319;28;19975;-35
2023/07/04 04:42:23;;;;;;;;;;;23.20;63.50;;;;;;5061930;28;19915;-35
2023/07/04 04:44:54;;;;;;;;;;;23.20;63.80;;;;;;5061751;28;20323;-35
2023/07/04 04:47:23;;;;;;;;;;;23.20;64.00;;;;;;5062125;28;19912;-36
2023/07/04 04:49:50;;;;;;;;;;;23.20;64.20;;;;;;5061985;28;19919;-35
2023/07/04 04:52:16;;;;;;;;;;;23.20;64.40;;;;;;5062710;28;20022;-35
2023/07/04 04:54:44;;;;;;;;;;;23.20;64.60;;;;;;5065765;28;19916;-35
2023/07/04 04:57:10;;;;;;;;;;;23.20;64.80;;;;;;5065297;28;19948;-35
2023/07/04 04:59:36;;;;;;;;;;;23.20;65.00;;;;;;5059017;28;20348;-36
2023/07/04 05:02:01;;;;;;;;;;;23.20;65.10;;;;;;5065949;28;19913;-35
2023/07/04 05:04:27;;;;;;;;;;;23.20;65.30;;;;;;5065879;28;19954;-35
2023/07/04 05:06:53;;;;;;;;;;;23.20;65.50;;;;;;5067015;28;19920;-35
2023/07/04 05:09:20;;;;;;;;;;;23.20;65.70;;;;;;5068966;28;19909;-36
2023/07/04 05:11:47;;;;;;;;;;;23.20;65.80;;;;;;5064938;28;19920;-36
2023/07/04 05:14:13;;;;;;;;;;;23.20;65.90;;;;;;5065272;28;19912;-35
2023/07/04 05:16:39;;;;;;;;;;;23.20;66.10;;;;;;5065287;28;19964;-35
2023/07/04 05:19:05;;;;;;;;;;;23.20;66.20;;;;;;5066057;28;19923;-36
2023/07/04 05:21:31;;;;;;;;;;;23.20;66.40;;;;;;5065868;28;20674;-36
2023/07/04 05:23:57;;;;;;;;;;;23.30;66.60;;;;;;5065000;28;19921;-35
2023/07/04 05:26:27;;;;;;;;;;;23.20;66.60;;;;;;5068715;28;19968;-35
2023/07/04 05:28:53;;;;;;;;;;;23.30;66.90;;;;;;5065193;28;19921;-36
2023/07/04 05:31:20;;;;;;;;;;;23.30;66.90;;;;;;5065536;28;19920;-36
2023/07/04 05:33:46;;;;;;;;;;;23.30;67.00;;;;;;5064988;28;19909;-35
2023/07/04 05:36:19;;;;;;;;;;;23.30;67.10;;;;;;5064950;28;19917;-35
2023/07/04 05:38:49;;;;;;;;;;;23.30;67.10;;;;;;5065232;28;19976;-35
2023/07/04 05:41:15;;;;;;;;;;;23.30;67.20;;;;;;5065261;28;19917;-35
2023/07/04 05:43:41;;;;;;;;;;;23.30;67.30;;;;;;5065008;28;19935;-35
2023/07/04 05:46:07;;;;;;;;;;;23.30;67.40;;;;;;5065331;28;19936;-36
2023/07/04 05:48:33;;;;;;;;;;;23.30;67.50;;;;;;5065075;28;20385;-35
2023/07/04 05:51:00;;;;;;;;;;;23.30;67.50;;;;;;5065020;28;19928;-35
2023/07/04 05:53:27;;;;;;;;;;;23.30;67.60;;;;;;5065133;28;19927;-35
2023/07/04 05:55:59;;;;;;;;;;;23.30;67.80;;;;;;5068103;28;19944;-35
2023/07/04 05:58:24;;;;;;;;;;;23.30;67.60;;;;;;5063939;28;19910;-35
2023/07/04 06:00:51;;;;;;;;;;;23.30;67.70;;;;;;5064621;28;19946;-36
2023/07/04 06:03:17;;;;;;;;;;;23.30;67.80;;;;;;5064242;28;19912;-36
2023/07/04 06:05:43;;;;;;;;;;;23.30;67.90;;;;;;5057466;28;19909;-35
2023/07/04 06:08:09;;;;;;;;;;;23.30;67.90;;;;;;5057744;28;19913;-35
2023/07/04 06:10:35;;;;;;;;;;;23.30;67.90;;;;;;5064489;28;19993;-35
2023/07/04 06:13:01;;;;;;;;;;;23.30;67.90;;;;;;5065594;28;19909;-35
2023/07/04 06:15:29;;;;;;;;;;;23.30;67.90;;;;;;5064781;28;19918;-36
2023/07/04 06:17:55;;;;;;;;;;;23.40;68.00;;;;;;5064308;28;19944;-35
2023/07/04 06:20:20;;;;;;;;;;;23.40;68.10;;;;;;5064681;28;19913;-35
2023/07/04 06:22:47;;;;;;;;;;;23.30;68.10;;;;;;5063489;28;19916;-35
2023/07/04 06:25:13;;;;;;;;;;;23.30;68.20;;;;;;5064587;28;20349;-35
2023/07/04 06:27:41;;;;;;;;;;;23.30;68.20;;;;;;5061727;28;19912;-36
2023/07/04 06:30:08;;;;;;;;;;;23.40;68.30;;;;;;5064387;28;19912;-35
2023/07/04 06:32:34;;;;;;;;;;;23.40;68.40;;;;;;5063856;28;19917;-35
2023/07/04 06:35:00;;;;;;;;;;;23.40;68.50;;;;;;5064292;28;19948;-35
2023/07/04 06:37:26;;;;;;;;;;;23.40;68.50;;;;;;5064170;28;19956;-35
2023/07/04 06:39:52;;;;;;;;;;;23.40;68.60;;;;;;5064361;28;19918;-35
2023/07/04 06:42:18;;;;;;;;;;;23.40;68.60;;;;;;5064306;28;19913;-35
2023/07/04 06:44:44;;;;;;;;;;;23.40;68.70;;;;;;5064016;28;20478;-35
2023/07/04 06:47:10;;;;;;;;;;;23.40;68.70;;;;;;5057241;28;19970;-35
2023/07/04 06:49:36;;;;;;;;;;;23.40;68.90;;;;;;5064079;28;19909;-35
2023/07/04 06:52:02;;;;;;;;;;;23.40;68.70;;;;;;5063876;28;19947;-36
2023/07/04 06:54:28;;;;;;;;;;;23.40;68.70;;;;;;5056882;28;19913;-36
2023/07/04 06:56:54;;;;;;;;;;;23.40;68.70;;;;;;5068009;28;19927;-35
2023/07/04 06:59:20;;;;;;;;;;;23.40;68.70;;;;;;5063870;28;19913;-35
2023/07/04 07:01:46;;;;;;;;;;;23.40;68.60;;;;;;5062755;28;19909;-35
2023/07/04 07:04:13;;;;;;;;;;;23.40;68.70;;;;;;5062430;28;19916;-36
2023/07/04 07:06:39;;;;;;;;;;;23.40;68.80;;;;;;5063421;28;19913;-35
2023/07/04 07:09:08;;;;;;;;;;;23.40;68.80;;;;;;5061821;28;20714;-35
2023/07/04 07:11:34;;;;;;;;;;;23.40;68.90;;;;;;5063051;28;19921;-35
2023/07/04 07:14:00;;;;;;;;;;;23.40;69.00;;;;;;5064854;28;19919;-35
2023/07/04 07:16:26;;;;;;;;;;;23.40;69.10;;;;;;5062707;28;19974;-35
2023/07/04 07:18:52;;;;;;;;;;;23.40;69.00;;;;;;5063389;28;19912;-36
2023/07/04 07:21:20;;;;;;;;;;;23.40;69.00;;;;;;5063565;28;19919;-35
2023/07/04 07:23:46;;;;;;;;;;;23.40;69.10;;;;;;5062910;28;19920;-35
2023/07/04 07:26:12;;;;;;;;;;;23.40;69.10;;;;;;5066691;28;19920;-35
2023/07/04 07:28:41;;;;;;;;;;;23.40;69.30;;;;;;5063046;28;19919;-35
2023/07/04 07:31:08;;;;;;;;;;;23.40;69.40;;;;;;5062845;28;19927;-35
2023/07/04 07:33:34;;;;;;;;;;;23.40;69.40;;;;;;5068184;28;19955;-35
2023/07/04 07:36:00;;;;;;;;;;;23.40;69.40;;;;;;5062886;28;19935;-35
2023/07/04 07:38:26;;;;;;;;;;;23.40;69.10;;;;;;5063033;28;19917;-35
2023/07/04 07:40:52;;;;;;;;;;;23.40;69.10;;;;;;5062640;28;19994;-36
2023/07/04 07:43:18;;;;;;;;;;;23.50;69.30;;;;;;5062928;28;19912;-35
2023/07/04 07:45:44;;;;;;;;;;;23.50;69.50;;;;;;5062980;28;19944;-35
2023/07/04 07:48:10;;;;;;;;;;;23.50;69.60;;;;;;5056809;28;19909;-35
2023/07/04 07:50:36;;;;;;;;;;;23.50;69.60;;;;;;5063148;28;21868;-35
2023/07/04 07:53:02;;;;;;;;;;;23.50;69.60;;;;;;5062238;28;19982;-35
2023/07/04 07:55:28;;;;;;;;;;;23.50;69.60;;;;;;5064551;28;19913;-35
2023/07/04 07:57:54;;;;;;;;;;;23.50;69.90;;;;;;5063438;28;20007;-35
2023/07/04 08:00:19;;;;;;;;;;;23.50;70.10;;;;;;5061858;28;19909;-35
2023/07/04 08:02:45;;;;;;;;;;;23.50;70.20;;;;;;5062570;28;20009;-35
2023/07/04 08:05:11;;;;;;;;;;;23.50;70.20;;;;;;5062706;28;19916;-35
2023/07/04 08:07:37;;;;;;;;;;;23.50;70.30;;;;;;5062745;28;19916;-35
2023/07/04 08:10:03;;;;;;;;;;;23.50;70.30;;;;;;5062207;28;19912;-35
2023/07/04 08:12:29;;;;;;;;;;;23.50;70.50;;;;;;5061831;28;19968;-36
2023/07/04 08:14:55;;;;;;;;;;;23.50;70.50;;;;;;5060962;28;19927;-35
2023/07/04 08:17:21;;;;;;;;;;;23.50;70.60;;;;;;5062513;28;19930;-35
2023/07/04 08:19:47;;;;;;;;;;;23.50;70.60;;;;;;5062459;28;19935;-35
2023/07/04 08:22:13;;;;;;;;;;;23.50;70.40;;;;;;5061727;28;19913;-35
2023/07/04 08:24:39;;;;;;;;;;;23.50;70.30;;;;;;5064742;28;19955;-36
2023/07/04 08:27:05;;;;;;;;;;;23.50;70.30;;;;;;5064740;28;19917;-35
2023/07/04 08:29:31;;;;;;;;;;;23.50;70.30;;;;;;5064301;28;20361;-35
2023/07/04 08:31:57;;;;;;;;;;;23.50;70.40;;;;;;5061758;28;19994;-35
2023/07/04 08:34:23;;;;;;;;;;;23.50;70.70;;;;;;5060706;28;19924;-35
2023/07/04 08:36:49;;;;;;;;;;;23.50;71.00;;;;;;5060959;28;19909;-35
2023/07/04 08:39:16;;;;;;;;;;;23.50;70.80;;;;;;5062033;28;19913;-35
2023/07/04 08:41:43;;;;;;;;;;;23.50;71.10;;;;;;5062155;28;19937;-35
2023/07/04 08:44:17;;;;;;;;;;;23.50;71.10;;;;;;5054484;28;19909;-35
2023/07/04 08:46:44;;;;;;;;;;;23.50;71.20;;;;;;5058974;28;19971;-35
2023/07/04 08:49:21;;;;;;;;;;;23.50;71.30;;;;;;5061506;28;19975;-35
2023/07/04 08:51:47;;;;;;;;;;;23.50;71.30;;;;;;5059990;28;20008;-35
2023/07/04 08:54:15;;;;;;;;;;;23.50;71.30;;;;;;5093873;28;19912;-35
2023/07/04 08:56:41;;;;;;;;;;;23.50;71.10;;;;;;5061795;28;19966;-35
2023/07/04 08:59:09;;;;;;;;;;;23.50;70.70;;;;;;5062070;28;19935;-35
2023/07/04 09:01:42;;;;;;;;;;;23.50;70.60;;;;;;5063438;28;19982;-35
2023/07/04 09:04:11;;;;;;;;;;;23.50;70.50;;;;;;5059556;28;19909;-35
2023/07/04 09:06:40;;;;;;;;;;;23.50;70.70;;;;;;5093615;28;19913;-35
2023/07/04 09:09:12;;;;;;;;;;;23.50;70.50;;;;;;5054801;28;19913;-35
2023/07/04 09:11:38;;;;;;;;;;;23.50;70.60;;;;;;5059422;28;20019;-35
2023/07/04 09:14:15;;;;;;;;;;;23.50;70.60;;;;;;5061110;28;20754;-35
2023/07/04 09:16:43;;;;;;;;;;;23.50;70.70;;;;;;5061729;28;19936;-35
2023/07/04 09:19:09;;;;;;;;;;;23.50;70.70;;;;;;5093704;28;19912;-35
2023/07/04 09:21:39;;;;;;;;;;;23.50;70.70;;;;;;5061046;28;19939;-35
2023/07/04 09:24:05;;;;;;;;;;;23.50;70.70;;;;;;5062078;28;19948;-35
2023/07/04 09:26:39;;;;;;;;;;;23.50;70.70;;;;;;5062456;28;19913;-35
2023/07/04 09:29:08;;;;;;;;;;;23.50;70.80;;;;;;5061060;28;20558;-35
2023/07/04 09:31:36;;;;;;;;;;;23.50;70.80;;;;;;5060995;28;19920;-35
2023/07/04 09:34:03;;;;;;;;;;;23.50;70.80;;;;;;5063892;28;19919;-35
2023/07/04 09:36:32;;;;;;;;;;;23.50;70.80;;;;;;5061851;28;19990;-35
2023/07/04 09:38:59;;;;;;;;;;;23.50;71.60;;;;;;5062991;28;19913;-35
2023/07/04 09:41:25;;;;;;;;;;;23.50;70.90;;;;;;5064565;28;19909;-35
2023/07/04 09:43:52;;;;;;;;;;;23.50;70.90;;;;;;5086407;28;19936;-35
2023/07/04 09:46:28;;;;;;;;;;;23.50;70.90;;;;;;5063555;28;19912;-35
2023/07/04 09:48:55;;;;;;;;;;;23.50;71.00;;;;;;5056185;28;19975;-35
2023/07/04 09:51:28;;;;;;;;;;;23.50;71.00;;;;;;5065078;28;20366;-35
2023/07/04 09:54:11;;;;;;;;;;;23.50;71.00;;;;;;5065245;28;19940;-35
2023/07/04 09:56:37;;;;;;;;;;;23.50;71.00;;;;;;5068493;28;19913;-35
2023/07/04 09:59:09;;;;;;;;;;;23.50;71.10;;;;;;5065403;28;19920;-35
2023/07/04 10:01:37;;;;;;;;;;;23.50;71.10;;;;;;5063690;28;19917;-35
2023/07/04 10:04:07;;;;;;;;;;;23.50;71.10;;;;;;5063158;28;19912;-35
2023/07/04 10:06:33;;;;;;;;;;;23.50;71.20;;;;;;5065158;28;19924;-35
2023/07/04 10:08:59;;;;;;;;;;;23.50;71.40;;;;;;5063225;28;19913;-35
2023/07/04 10:11:34;;;;;;;;;;;23.50;71.40;;;;;;5064101;28;19984;-35
2023/07/04 10:14:02;;;;;;;;;;;23.50;71.30;;;;;;5063188;28;19970;-35
2023/07/04 10:16:28;;;;;;;;;;;23.50;71.50;;;;;;5064600;28;20599;-35
2023/07/04 10:19:10;;;;;;;;;;;23.50;71.60;;;;;;5064331;28;19952;-36
2023/07/04 10:21:43;;;;;;;;;;;23.50;71.70;;;;;;5064371;28;20069;-35
2023/07/04 10:24:16;;;;;;;;;;;23.50;71.60;;;;;;5064698;28;19912;-35
2023/07/04 10:26:42;;;;;;;;;;;23.50;71.40;;;;;;5067306;28;19913;-35
2023/07/04 10:29:08;;;;;;;;;;;23.50;71.60;;;;;;5069844;28;19920;-35
2023/07/04 10:31:35;;;;;;;;;;;23.50;71.50;;;;;;5063980;28;19917;-35
2023/07/04 10:34:02;;;;;;;;;;;23.50;71.40;;;;;;5064036;28;20633;-35
2023/07/04 10:36:29;;;;;;;;;;;23.50;71.50;;;;;;5063343;28;19917;-35
2023/07/04 10:38:55;;;;;;;;;;;23.50;71.40;;;;;;5062693;28;19915;-35
2023/07/04 10:41:50;;;;;;;;;;;23.50;71.50;;;;;;5064250;28;19919;-35
2023/07/04 10:44:19;;;;;;;;;;;23.50;71.50;;;;;;5061103;28;19940;-35
2023/07/04 10:47:11;;;;;;;;;;;23.50;71.60;;;;;;5055481;28;19938;-35
2023/07/04 10:49:57;;;;;;;;;;;23.50;71.60;;;;;;5062613;28;19909;-35
2023/07/04 10:52:30;;;;;;;;;;;23.40;71.70;;;;;;5058653;28;19924;-35
2023/07/04 10:54:56;;;;;;;;;;;23.40;71.80;;;;;;5063715;28;19940;-35
2023/07/04 10:57:32;;;;;;;;;;;23.40;72.00;;;;;;5067267;28;19915;-35
2023/07/04 11:00:19;;;;;;;;;;;23.50;71.90;;;;;;5062004;28;19913;-35
2023/07/04 11:02:49;;;;;;;;;;;23.40;72.10;;;;;;5095530;28;19951;-35
2023/07/04 11:05:17;;;;;;;;;;;23.40;72.00;;;;;;5055817;28;19988;-35
2023/07/04 11:07:44;;;;;;;;;;;23.40;72.10;;;;;;5065415;28;19947;-35
2023/07/04 11:10:11;;;;;;;;;;;23.40;72.00;;;;;;5056467;28;20388;-35
2023/07/04 11:12:37;;;;;;;;;;;23.40;72.10;;;;;;5063788;28;19921;-35
2023/07/04 11:15:04;;;;;;;;;;;23.40;72.00;;;;;;5062077;28;19912;-35
2023/07/04 11:17:31;;;;;;;;;;;23.40;71.90;;;;;;5062417;28;19913;-35
2023/07/04 11:20:07;;;;;;;;;;;23.40;71.90;;;;;;5061549;28;20006;-35
2023/07/04 11:22:37;;;;;;;;;;;23.40;71.90;;;;;;5062819;28;19912;-36
2023/07/04 11:25:23;;;;;;;;;;;23.40;71.90;;;;;;5063413;28;19912;-38
2023/07/04 11:28:09;;;;;;;;;;;23.40;71.90;;;;;;5061443;28;19919;-36
2023/07/04 11:30:36;;;;;;;;;;;23.40;71.80;;;;;;5062597;28;19917;-36
2023/07/04 11:33:02;;;;;;;;;;;23.40;71.80;;;;;;5061633;28;19971;-35
2023/07/04 11:35:31;;;;;;;;;;;23.40;71.90;;;;;;5063686;28;19908;-35
2023/07/04 11:38:03;;;;;;;;;;;23.40;72.10;;;;;;5062383;28;19912;-35
2023/07/04 11:40:30;;;;;;;;;;;23.40;72.10;;;;;;5094586;28;19908;-35
2023/07/04 11:43:00;;;;;;;;;;;23.40;72.20;;;;;;5062863;28;19912;-35
2023/07/04 11:45:26;;;;;;;;;;;23.40;72.30;;;;;;5064215;28;19913;-35
2023/07/04 11:48:02;;;;;;;;;;;23.40;72.40;;;;;;5063242;28;19920;-35
2023/07/04 11:50:44;;;;;;;;;;;23.40;72.40;;;;;;5061112;28;19995;-35
2023/07/04 11:53:16;;;;;;;;;;;23.40;72.40;;;;;;5062893;28;19928;-35
2023/07/04 11:55:42;;;;;;;;;;;23.40;72.40;;;;;;5098225;28;19922;-35
2023/07/04 11:58:08;;;;;;;;;;;23.40;72.50;;;;;;5062948;28;19984;-35
2023/07/04 12:00:38;;;;;;;;;;;23.40;72.40;;;;;;5062419;28;19959;-35
2023/07/04 12:03:16;;;;;;;;;;;23.40;72.20;;;;;;5062657;28;19908;-35
2023/07/04 12:05:42;;;;;;;;;;;23.40;72.10;;;;;;5062381;28;19971;-35
2023/07/04 12:08:08;;;;;;;;;;;23.40;72.00;;;;;;5062822;28;19908;-35
2023/07/04 12:10:34;;;;;;;;;;;23.40;72.00;;;;;;5062450;28;19915;-36
2023/07/04 12:13:03;;;;;;;;;;;23.40;72.70;;;;;;5094356;28;19917;-35
2023/07/04 12:15:29;;;;;;;;;;;23.40;72.00;;;;;;5060885;28;20678;-35
2023/07/04 12:17:58;;;;;;;;;;;23.40;72.10;;;;;;5062729;28;20401;-35
2023/07/04 12:20:26;;;;;;;;;;;23.40;72.10;;;;;;5061091;28;19912;-35
2023/07/04 12:22:55;;;;;;;;;;;23.40;72.10;;;;;;5064070;28;19979;-35
2023/07/04 12:25:22;;;;;;;;;;;23.40;72.20;;;;;;5063390;28;19918;-35
2023/07/04 12:28:08;;;;;;;;;;;23.40;72.30;;;;;;5063990;28;19959;-35
2023/07/04 12:30:37;;;;;;;;;;;23.40;72.40;;;;;;5078024;28;20300;-36
2023/07/04 12:33:03;;;;;;;;;;;23.40;72.30;;;;;;5053501;28;19978;-35
2023/07/04 12:35:30;;;;;;;;;;;23.40;72.60;;;;;;5075099;28;19912;-35
2023/07/04 12:37:57;;;;;;;;;;;23.40;72.60;;;;;;5069252;28;19912;-36
2023/07/04 12:40:28;;;;;;;;;;;23.40;72.60;;;;;;5073205;28;19909;-35
2023/07/04 12:42:54;;;;;;;;;;;23.40;72.60;;;;;;5074883;28;20419;-35
2023/07/04 12:45:27;;;;;;;;;;;23.40;72.50;;;;;;5056226;28;19912;-35
2023/07/04 12:47:54;;;;;;;;;;;23.40;72.60;;;;;;5070427;28;19908;-36
2023/07/04 12:50:20;;;;;;;;;;;23.40;72.40;;;;;;5065565;28;20491;-35
2023/07/04 12:52:46;;;;;;;;;;;23.50;72.60;;;;;;5067620;28;19920;-35
2023/07/04 12:55:31;;;;;;;;;;;23.50;72.60;;;;;;5051062;28;19972;-35
2023/07/04 12:57:57;;;;;;;;;;;23.50;72.60;;;;;;5042887;28;19923;-35
2023/07/04 13:00:26;;;;;;;;;;;23.50;72.80;;;;;;5060697;28;19913;-36
2023/07/04 13:02:52;;;;;;;;;;;23.50;72.70;;;;;;5073547;28;19915;-36
2023/07/04 13:05:18;;;;;;;;;;;23.50;72.70;;;;;;5062375;28;19959;-36
2023/07/04 13:07:44;;;;;;;;;;;23.50;72.70;;;;;;5059709;28;19913;-35
2023/07/04 13:10:11;;;;;;;;;;;23.50;72.90;;;;;;5086350;28;19994;-35
2023/07/04 13:12:37;;;;;;;;;;;23.50;72.90;;;;;;5093060;28;19920;-36
2023/07/04 13:15:09;;;;;;;;;;;23.50;73.00;;;;;;5064665;28;19913;-36
2023/07/04 13:17:35;;;;;;;;;;;23.50;73.00;;;;;;5065492;28;19908;-36
2023/07/04 13:20:11;;;;;;;;;;;23.50;73.30;;;;;;5064342;28;19913;-36
2023/07/04 13:22:37;;;;;;;;;;;23.50;73.20;;;;;;5064155;28;19913;-36
2023/07/04 13:25:19;;;;;;;;;;;23.50;73.30;;;;;;5058607;28;19912;-36
2023/07/04 13:27:45;;;;;;;;;;;23.50;73.30;;;;;;5062724;28;19913;-36
2023/07/04 13:30:21;;;;;;;;;;;23.50;73.20;;;;;;5065969;28;19913;-36
2023/07/04 13:32:47;;;;;;;;;;;23.50;73.10;;;;;;5096435;28;19920;-35
2023/07/04 13:35:22;;;;;;;;;;;23.50;73.10;;;;;;5065589;28;19912;-36
2023/07/04 13:37:49;;;;;;;;;;;23.50;73.10;;;;;;5064526;28;19919;-36
2023/07/04 13:40:15;;;;;;;;;;;23.50;73.10;;;;;;5065446;28;19912;-36
2023/07/04 13:42:41;;;;;;;;;;;23.50;73.00;;;;;;5067455;28;19916;-35
2023/07/04 13:45:08;;;;;;;;;;;23.50;73.10;;;;;;5065068;28;19913;-35
2023/07/04 13:47:34;;;;;;;;;;;23.60;73.20;;;;;;5065387;28;19913;-35
2023/07/04 13:50:02;;;;;;;;;;;23.60;73.20;;;;;;5065096;28;19923;-36
2023/07/04 13:52:28;;;;;;;;;;;23.60;73.20;;;;;;5064887;28;19952;-36
2023/07/04 13:54:54;;;;;;;;;;;23.60;73.20;;;;;;5064725;28;19912;-35
2023/07/04 13:57:20;;;;;;;;;;;23.60;73.30;;;;;;5068569;28;19999;-36
2023/07/04 13:59:48;;;;;;;;;;;23.60;73.40;;;;;;5064905;28;19917;-37
2023/07/04 14:02:14;;;;;;;;;;;23.60;73.40;;;;;;5064854;28;19939;-36
2023/07/04 14:04:40;;;;;;;;;;;23.60;73.40;;;;;;5064521;28;19992;-35
2023/07/04 14:07:06;;;;;;;;;;;23.60;73.50;;;;;;5064435;28;19952;-36
2023/07/04 14:09:32;;;;;;;;;;;23.60;73.50;;;;;;5064083;28;19913;-36
2023/07/04 14:11:58;;;;;;;;;;;23.60;73.50;;;;;;5062796;28;19990;-36
2023/07/04 14:14:24;;;;;;;;;;;23.60;73.60;;;;;;5064982;28;20448;-36
2023/07/04 14:16:51;;;;;;;;;;;23.60;73.70;;;;;;5063966;28;19924;-36
2023/07/04 14:19:17;;;;;;;;;;;23.70;73.90;;;;;;5066325;28;19912;-36